createdAt,value
2018-05-09T00:00:35.600Z,41.47
2018-05-09T00:03:01.642Z,38.97
2018-05-09T00:05:28.024Z,39.40
2018-05-09T00:07:54.039Z,42.77
2018-05-09T00:10:20.156Z,49.37
2018-05-09T00:12:46.210Z,46.67
2018-05-09T00:15:12.237Z,52.67
2018-05-09T00:17:38.232Z,46.27
2018-05-09T00:20:04.386Z,48.30
2018-05-09T00:22:30.551Z,51.80
2018-05-09T00:24:56.548Z,49.60
2018-05-09T00:27:22.550Z,45.10
2018-05-09T00:29:48.655Z,42.53
2018-05-09T00:32:14.723Z,42.93
2018-05-09T00:34:40.728Z,41.97
2018-05-09T00:37:06.744Z,42.90
2018-05-09T00:39:32.797Z,44.93
2018-05-09T00:41:59.068Z,51.20
2018-05-09T00:44:25.080Z,68.27
2018-05-09T00:46:51.094Z,83.40
2018-05-09T00:49:17.172Z,87.50
2018-05-09T00:51:43.264Z,74.87
2018-05-09T00:54:21.363Z,80.00
2018-05-09T00:56:47.363Z,84.50
2018-05-09T00:59:13.375Z,83.37
2018-05-09T01:01:39.374Z,89.13
2018-05-09T01:04:05.391Z,83.70
2018-05-09T01:06:31.372Z,92.93
2018-05-09T01:08:57.373Z,89.77
2018-05-09T01:11:23.420Z,77.13
2018-05-09T01:13:49.405Z,78.40
2018-05-09T01:16:15.400Z,87.80
2018-05-09T01:18:41.433Z,86.07
2018-05-09T01:21:07.425Z,74.33
2018-05-09T01:23:33.460Z,75.20
2018-05-09T01:25:59.464Z,81.13
2018-05-09T01:28:25.477Z,83.63
2018-05-09T01:30:51.464Z,82.50
2018-05-09T01:33:17.455Z,88.37
2018-05-09T01:35:43.478Z,80.83
2018-05-09T01:38:09.561Z,78.97
2018-05-09T01:40:35.558Z,74.47
2018-05-09T01:43:02.176Z,68.30
2018-05-09T01:45:28.284Z,72.30
2018-05-09T01:47:54.394Z,69.47
2018-05-09T01:50:20.448Z,74.43
2018-05-09T01:52:46.547Z,71.30
2018-05-09T01:55:12.688Z,65.73
2018-05-09T01:57:38.869Z,63.83
2018-05-09T02:00:04.873Z,61.87
2018-05-09T02:02:30.970Z,61.83
2018-05-09T02:04:57.815Z,61.17
2018-05-09T02:07:23.924Z,66.73
2018-05-09T02:09:49.944Z,60.63
2018-05-09T02:12:16.084Z,63.70
2018-05-09T02:14:42.160Z,69.37
2018-05-09T02:17:08.250Z,70.90
2018-05-09T02:19:34.260Z,65.10
2018-05-09T02:22:00.269Z,66.73
2018-05-09T02:24:26.377Z,73.33
2018-05-09T02:26:52.444Z,73.57
2018-05-09T02:29:18.476Z,71.97
2018-05-09T02:31:44.480Z,75.63
2018-05-09T02:34:10.599Z,79.50
2018-05-09T02:36:36.640Z,74.53
2018-05-09T02:39:02.717Z,72.07
2018-05-09T02:41:28.705Z,71.00
2018-05-09T02:43:54.864Z,69.63
2018-05-09T02:46:21.024Z,75.07
2018-05-09T02:48:47.047Z,77.07
2018-05-09T02:51:13.187Z,70.63
2018-05-09T02:53:39.195Z,72.37
2018-05-09T02:56:05.217Z,74.47
2018-05-09T02:58:31.233Z,72.63
2018-05-09T03:00:57.253Z,67.80
2018-05-09T03:03:23.265Z,75.93
2018-05-09T03:05:49.693Z,73.20
2018-05-09T03:08:15.691Z,75.33
2018-05-09T03:10:41.691Z,78.43
2018-05-09T03:13:08.441Z,80.10
2018-05-09T03:15:34.562Z,71.47
2018-05-09T03:18:00.588Z,72.83
2018-05-09T03:20:26.605Z,72.40
2018-05-09T03:22:52.669Z,88.07
2018-05-09T03:25:18.926Z,76.97
2018-05-09T03:27:44.995Z,77.30
2018-05-09T03:30:11.024Z,83.50
2018-05-09T03:32:37.055Z,82.17
2018-05-09T03:35:03.132Z,86.27
2018-05-09T03:37:29.177Z,88.50
2018-05-09T03:39:55.201Z,86.33
2018-05-09T03:42:21.189Z,74.87
2018-05-09T03:44:47.212Z,88.53
2018-05-09T03:47:13.248Z,86.40
2018-05-09T03:49:39.279Z,78.50
2018-05-09T03:52:05.321Z,88.93
2018-05-09T03:54:31.352Z,85.40
2018-05-09T03:56:57.378Z,101.47
2018-05-09T03:59:23.395Z,91.73
2018-05-09T04:02:01.567Z,98.77
2018-05-09T04:04:39.757Z,90.30
2018-05-09T04:07:17.944Z,89.37
2018-05-09T04:09:59.837Z,86.60
2018-05-09T04:12:25.900Z,102.20
2018-05-09T04:14:52.084Z,92.57
2018-05-09T04:17:18.044Z,91.20
2018-05-09T04:19:44.105Z,107.47
2018-05-09T04:22:10.197Z,105.03
2018-05-09T04:24:36.257Z,97.57
2018-05-09T04:27:02.261Z,113.87
2018-05-09T04:29:28.988Z,133.90
2018-05-09T04:31:55.010Z,111.80
2018-05-09T04:34:21.154Z,108.77
2018-05-09T04:36:47.173Z,125.90
2018-05-09T04:39:13.284Z,101.73
2018-05-09T04:41:39.659Z,99.57
2018-05-09T04:44:05.695Z,119.90
2018-05-09T04:46:31.723Z,107.67
2018-05-09T04:48:58.098Z,117.37
2018-05-09T04:51:24.120Z,97.03
2018-05-09T04:53:50.180Z,104.27
2018-05-09T04:56:16.195Z,106.60
2018-05-09T04:58:42.407Z,92.67
2018-05-09T05:01:08.408Z,108.63
2018-05-09T05:03:34.480Z,98.43
2018-05-09T05:06:00.607Z,110.53
2018-05-09T05:08:26.716Z,107.73
2018-05-09T05:10:52.991Z,113.37
2018-05-09T05:13:20.967Z,112.20
2018-05-09T05:15:47.691Z,100.47
2018-05-09T05:18:14.096Z,105.03
2018-05-09T05:20:40.286Z,103.93
2018-05-09T05:23:06.670Z,98.57
2018-05-09T05:25:33.842Z,94.77
2018-05-09T05:27:59.979Z,91.03
2018-05-09T05:30:27.392Z,92.97
2018-05-09T05:32:54.997Z,85.70
2018-05-09T05:35:21.005Z,88.73
2018-05-09T05:37:47.028Z,107.77
2018-05-09T05:40:13.296Z,105.13
2018-05-09T05:42:39.405Z,92.37
2018-05-09T05:45:05.591Z,99.57
2018-05-09T05:47:32.272Z,95.43
2018-05-09T05:49:58.377Z,92.83
2018-05-09T05:52:24.644Z,94.67
2018-05-09T05:54:50.828Z,90.20
2018-05-09T05:57:16.997Z,87.87
2018-05-09T05:59:43.010Z,77.83
2018-05-09T06:02:09.037Z,79.20
2018-05-09T06:04:35.053Z,76.50
2018-05-09T06:07:01.198Z,76.10
2018-05-09T06:09:27.173Z,73.83
2018-05-09T06:11:53.197Z,76.83
2018-05-09T06:14:19.233Z,73.53
2018-05-09T06:16:45.268Z,77.80
2018-05-09T06:19:11.312Z,70.90
2018-05-09T06:21:37.320Z,77.80
2018-05-09T06:24:03.461Z,81.33
2018-05-09T06:26:29.371Z,84.20
2018-05-09T06:28:55.385Z,76.13
2018-05-09T06:31:21.398Z,75.60
2018-05-09T06:33:47.430Z,74.80
2018-05-09T06:36:13.461Z,77.03
2018-05-09T06:38:39.497Z,75.33
2018-05-09T06:41:05.521Z,73.33
2018-05-09T06:43:31.575Z,72.67
2018-05-09T06:45:57.599Z,76.83
2018-05-09T06:48:23.628Z,71.20
2018-05-09T06:50:49.654Z,72.43
2018-05-09T06:53:15.739Z,72.43
2018-05-09T06:55:41.792Z,76.80
2018-05-09T06:58:07.798Z,74.37
2018-05-09T07:00:33.849Z,73.00
2018-05-09T07:02:59.893Z,72.43
2018-05-09T07:05:25.913Z,72.90
2018-05-09T07:07:51.920Z,71.37
2018-05-09T07:10:17.949Z,63.83
2018-05-09T07:12:44.674Z,72.07
2018-05-09T07:15:10.773Z,68.40
2018-05-09T07:17:36.854Z,63.87
2018-05-09T07:20:02.973Z,63.53
2018-05-09T07:22:28.974Z,64.43
2018-05-09T07:24:55.005Z,61.37
2018-05-09T07:27:21.684Z,66.10
2018-05-09T07:29:47.760Z,60.60
2018-05-09T07:32:13.793Z,58.63
2018-05-09T07:34:39.815Z,58.37
2018-05-09T07:37:05.806Z,58.97
2018-05-09T07:39:31.800Z,59.60
2018-05-09T07:41:57.823Z,56.00
2018-05-09T07:44:23.868Z,55.40
2018-05-09T07:46:49.971Z,51.50
2018-05-09T07:49:16.010Z,52.30
2018-05-09T07:51:42.132Z,50.33
2018-05-09T07:54:08.205Z,52.50
2018-05-09T07:56:34.433Z,48.77
2018-05-09T07:59:00.461Z,48.00
2018-05-09T08:01:26.540Z,47.87
2018-05-09T08:03:52.899Z,47.87
2018-05-09T08:06:19.028Z,48.17
2018-05-09T08:08:45.143Z,46.70
2018-05-09T08:11:11.185Z,44.47
2018-05-09T08:13:37.201Z,46.53
2018-05-09T08:16:04.253Z,46.33
2018-05-09T08:18:30.272Z,45.63
2018-05-09T08:20:56.377Z,45.37
2018-05-09T08:23:22.417Z,43.07
2018-05-09T08:25:48.428Z,41.50
2018-05-09T08:28:14.561Z,39.73
2018-05-09T08:30:40.624Z,40.93
2018-05-09T08:33:07.114Z,40.27
2018-05-09T08:35:33.136Z,40.70
2018-05-09T08:37:59.242Z,38.30
2018-05-09T08:40:25.275Z,40.03
2018-05-09T08:42:51.329Z,37.07
2018-05-09T08:45:17.416Z,36.83
2018-05-09T08:47:43.488Z,33.40
2018-05-09T08:50:09.528Z,35.83
2018-05-09T08:52:35.551Z,30.13
2018-05-09T08:55:01.604Z,30.60
2018-05-09T08:57:27.637Z,26.93
2018-05-09T08:59:53.654Z,28.47
2018-05-09T09:02:19.699Z,27.40
2018-05-09T09:04:45.711Z,27.50
2018-05-09T09:07:11.739Z,34.37
2018-05-09T09:09:37.789Z,35.77
2018-05-09T09:12:03.803Z,36.47
2018-05-09T09:14:30.013Z,34.73
2018-05-09T09:16:56.077Z,28.20
2018-05-09T09:19:22.280Z,26.30
2018-05-09T09:21:48.400Z,23.47
2018-05-09T09:24:14.590Z,28.27
2018-05-09T09:26:40.712Z,23.30
2018-05-09T09:29:06.831Z,23.77
2018-05-09T09:31:32.820Z,23.83
2018-05-09T09:33:58.833Z,25.27
2018-05-09T09:36:25.186Z,23.23
2018-05-09T09:38:51.189Z,20.47
2018-05-09T09:41:17.465Z,25.50
2018-05-09T09:43:43.501Z,23.03
2018-05-09T09:46:09.521Z,24.80
2018-05-09T09:48:35.540Z,28.87
2018-05-09T09:51:01.648Z,24.07
2018-05-09T09:53:27.679Z,24.07
2018-05-09T09:55:53.731Z,22.63
2018-05-09T09:58:19.737Z,22.30
2018-05-09T10:00:45.818Z,26.10
2018-05-09T10:03:11.870Z,25.83
2018-05-09T10:05:37.896Z,26.57
2018-05-09T10:08:04.017Z,28.40
2018-05-09T10:10:29.976Z,28.53
2018-05-09T10:12:55.976Z,28.70
2018-05-09T10:15:21.988Z,29.77
2018-05-09T10:17:48.154Z,26.43
2018-05-09T10:20:14.300Z,25.47
2018-05-09T10:22:40.455Z,26.30
2018-05-09T10:25:06.680Z,27.60
2018-05-09T10:27:32.819Z,24.77
2018-05-09T10:29:58.827Z,23.83
2018-05-09T10:32:24.891Z,24.40
2018-05-09T10:34:51.928Z,28.63
2018-05-09T10:37:17.933Z,23.50
2018-05-09T10:39:44.027Z,27.60
2018-05-09T10:42:10.421Z,23.00
2018-05-09T10:44:36.490Z,22.83
2018-05-09T10:47:03.166Z,23.97
2018-05-09T10:49:29.169Z,26.20
2018-05-09T10:51:55.214Z,22.97
2018-05-09T10:54:21.232Z,23.97
2018-05-09T10:56:47.257Z,21.43
2018-05-09T10:59:13.600Z,22.83
2018-05-09T11:01:39.999Z,19.50
2018-05-09T11:04:06.321Z,22.73
2018-05-09T11:06:32.907Z,20.43
2018-05-09T11:08:58.931Z,23.03
2018-05-09T11:11:25.023Z,23.90
2018-05-09T11:13:51.142Z,20.90
2018-05-09T11:16:17.310Z,24.10
2018-05-09T11:18:43.320Z,21.67
2018-05-09T11:21:09.419Z,23.93
2018-05-09T11:23:35.409Z,20.73
2018-05-09T11:26:01.454Z,20.33
2018-05-09T11:28:27.488Z,20.83
2018-05-09T11:30:53.575Z,22.70
2018-05-09T11:33:19.799Z,23.83
2018-05-09T11:35:45.860Z,22.67
2018-05-09T11:38:12.324Z,22.53
2018-05-09T11:40:38.320Z,22.03
2018-05-09T11:43:04.473Z,22.97
2018-05-09T11:45:30.555Z,20.00
2018-05-09T11:47:56.582Z,23.00
2018-05-09T11:50:22.601Z,25.10
2018-05-09T11:52:49.284Z,21.77
2018-05-09T11:55:15.333Z,19.73
2018-05-09T11:57:41.414Z,19.90
2018-05-09T12:00:07.440Z,22.07
2018-05-09T12:02:33.547Z,20.53
2018-05-09T12:04:59.605Z,26.60
2018-05-09T12:07:25.617Z,20.30
2018-05-09T12:09:51.615Z,18.77
2018-05-09T12:12:17.668Z,18.90
2018-05-09T12:14:43.661Z,18.70
2018-05-09T12:17:09.675Z,18.27
2018-05-09T12:19:35.785Z,19.63
2018-05-09T12:22:01.840Z,19.63
2018-05-09T12:24:28.535Z,18.23
2018-05-09T12:26:54.583Z,18.47
2018-05-09T12:29:20.632Z,18.57
2018-05-09T12:31:46.682Z,20.13
2018-05-09T12:34:12.738Z,20.07
2018-05-09T12:36:38.862Z,18.67
2018-05-09T12:39:04.889Z,18.37
2018-05-09T12:41:30.978Z,19.90
2018-05-09T12:43:57.106Z,18.03
2018-05-09T12:46:23.100Z,17.87
2018-05-09T12:48:49.148Z,18.70
2018-05-09T12:51:15.148Z,19.03
2018-05-09T12:53:41.326Z,17.93
2018-05-09T12:56:07.424Z,22.40
2018-05-09T12:58:33.466Z,20.97
2018-05-09T13:00:59.558Z,19.93
2018-05-09T13:03:26.229Z,18.43
2018-05-09T13:05:52.459Z,18.73
2018-05-09T13:08:18.586Z,19.33
2018-05-09T13:10:44.640Z,19.13
2018-05-09T13:13:10.830Z,20.57
2018-05-09T13:15:36.848Z,20.27
2018-05-09T13:18:03.120Z,19.77
2018-05-09T13:20:29.142Z,19.53
2018-05-09T13:22:55.207Z,22.20
2018-05-09T13:25:21.288Z,22.30
2018-05-09T13:27:47.490Z,22.10
2018-05-09T13:30:13.576Z,25.10
2018-05-09T13:32:39.671Z,23.17
2018-05-09T13:35:05.861Z,24.27
2018-05-09T13:37:32.592Z,21.57
2018-05-09T13:39:58.781Z,21.47
2018-05-09T13:42:24.830Z,20.93
2018-05-09T13:44:50.899Z,21.40
2018-05-09T13:47:16.963Z,18.73
2018-05-09T13:49:43.147Z,21.23
2018-05-09T13:52:09.192Z,22.33
2018-05-09T13:54:35.299Z,19.07
2018-05-09T13:57:01.357Z,18.70
2018-05-09T13:59:27.401Z,18.50
2018-05-09T14:01:53.437Z,20.30
2018-05-09T14:04:19.446Z,19.33
2018-05-09T14:06:45.470Z,18.70
2018-05-09T14:09:11.545Z,18.40
2018-05-09T14:11:37.644Z,18.60
2018-05-09T14:14:03.663Z,17.67
2018-05-09T14:16:29.686Z,16.63
2018-05-09T14:18:55.772Z,17.80
2018-05-09T14:21:21.917Z,14.80
2018-05-09T14:23:48.133Z,14.70
2018-05-09T14:26:14.361Z,16.90
2018-05-09T14:28:40.520Z,16.67
2018-05-09T14:31:06.517Z,14.43
2018-05-09T14:33:32.729Z,15.67
2018-05-09T14:35:58.809Z,13.47
2018-05-09T14:38:24.872Z,17.37
2018-05-09T14:40:50.932Z,15.17
2018-05-09T14:43:16.951Z,14.00
2018-05-09T14:45:43.150Z,12.93
2018-05-09T14:48:09.178Z,13.07
2018-05-09T14:50:35.255Z,14.47
2018-05-09T14:53:01.380Z,12.93
2018-05-09T14:55:27.445Z,12.27
2018-05-09T14:57:53.534Z,11.37
2018-05-09T15:00:19.837Z,11.77
2018-05-09T15:02:45.797Z,11.00
2018-05-09T15:05:11.835Z,12.80
2018-05-09T15:07:37.829Z,13.67
2018-05-09T15:10:03.830Z,11.27
2018-05-09T15:12:29.836Z,11.77
2018-05-09T15:14:55.908Z,12.47
2018-05-09T15:17:22.056Z,17.27
2018-05-09T15:19:48.156Z,13.27
2018-05-09T15:22:14.297Z,12.33
2018-05-09T15:24:41.243Z,12.83
2018-05-09T15:27:07.255Z,12.27
2018-05-09T15:29:33.301Z,13.00
2018-05-09T15:31:59.325Z,11.10
2018-05-09T15:34:25.361Z,12.27
2018-05-09T15:36:51.397Z,13.23
2018-05-09T15:39:17.430Z,11.30
2018-05-09T15:41:43.484Z,10.17
2018-05-09T15:44:09.491Z,13.80
2018-05-09T15:46:36.796Z,11.07
2018-05-09T15:49:04.321Z,11.30
2018-05-09T15:51:30.640Z,11.80
2018-05-09T15:53:56.673Z,11.07
2018-05-09T15:56:22.825Z,11.90
2018-05-09T15:58:48.922Z,10.90
2018-05-09T16:01:15.085Z,11.20
2018-05-09T16:03:41.172Z,11.27
2018-05-09T16:06:07.492Z,11.83
2018-05-09T16:08:33.524Z,10.50
2018-05-09T16:10:59.545Z,11.63
2018-05-09T16:13:25.624Z,11.10
2018-05-09T16:15:51.621Z,11.03
2018-05-09T16:18:17.619Z,11.27
2018-05-09T16:20:43.661Z,11.37
2018-05-09T16:23:09.725Z,10.33
2018-05-09T16:25:35.729Z,12.43
2018-05-09T16:28:01.751Z,11.10
2018-05-09T16:30:27.862Z,10.27
2018-05-09T16:32:53.884Z,10.80
2018-05-09T16:35:19.928Z,11.03
2018-05-09T16:37:46.024Z,11.47
2018-05-09T16:40:12.047Z,10.23
2018-05-09T16:42:38.080Z,10.33
2018-05-09T16:45:04.101Z,10.43
2018-05-09T16:47:30.133Z,10.93
2018-05-09T16:49:56.174Z,12.00
2018-05-09T16:52:22.206Z,12.40
2018-05-09T16:54:48.233Z,11.87
2018-05-09T16:57:14.252Z,12.80
2018-05-09T16:59:41.122Z,13.87
2018-05-09T17:02:07.132Z,13.00
2018-05-09T17:04:33.145Z,12.77
2018-05-09T17:06:59.235Z,13.23
2018-05-09T17:09:25.244Z,14.50
2018-05-09T17:11:51.281Z,14.03
2018-05-09T17:14:17.390Z,13.03
2018-05-09T17:16:43.431Z,13.70
2018-05-09T17:19:09.491Z,16.20
2018-05-09T17:21:39.272Z,13.00
2018-05-09T17:24:05.391Z,14.47
2018-05-09T17:26:31.444Z,13.00
2018-05-09T17:28:57.546Z,16.30
2018-05-09T17:31:23.563Z,13.97
2018-05-09T17:33:49.564Z,13.57
2018-05-09T17:36:15.679Z,12.90
2018-05-09T17:38:41.708Z,13.83
2018-05-09T17:41:07.752Z,15.23
2018-05-09T17:43:33.752Z,13.30
2018-05-09T17:45:59.782Z,13.77
2018-05-09T17:48:25.848Z,13.63
2018-05-09T17:50:51.958Z,12.57
2018-05-09T17:53:17.957Z,14.23
2018-05-09T17:55:44.021Z,13.07
2018-05-09T17:58:10.038Z,13.17
2018-05-09T18:00:36.066Z,15.00
2018-05-09T18:03:02.099Z,14.77
2018-05-09T18:05:28.187Z,13.40
2018-05-09T18:07:54.233Z,14.00
2018-05-09T18:10:20.878Z,13.33
2018-05-09T18:12:46.973Z,15.13
2018-05-09T18:15:13.012Z,13.97
2018-05-09T18:17:45.813Z,13.07
2018-05-09T18:20:11.930Z,14.07
2018-05-09T18:22:38.015Z,14.80
2018-05-09T18:25:04.412Z,18.10
2018-05-09T18:27:30.506Z,13.90
2018-05-09T18:29:56.575Z,15.33
2018-05-09T18:32:22.607Z,14.67
2018-05-09T18:34:48.695Z,14.93
2018-05-09T18:37:14.826Z,13.50
2018-05-09T18:39:40.929Z,15.30
2018-05-09T18:42:06.958Z,16.20
2018-05-09T18:44:33.065Z,16.70
2018-05-09T18:46:59.186Z,16.77
2018-05-09T18:49:25.274Z,17.80
2018-05-09T18:51:51.305Z,20.23
2018-05-09T18:54:17.343Z,17.17
2018-05-09T18:56:43.411Z,16.47
2018-05-09T18:59:09.411Z,17.60
2018-05-09T19:01:35.461Z,17.77
2018-05-09T19:04:01.477Z,19.23
2018-05-09T19:06:27.545Z,20.37
2018-05-09T19:08:53.541Z,19.47
2018-05-09T19:11:19.627Z,20.23
2018-05-09T19:13:45.672Z,19.60
2018-05-09T19:16:11.731Z,19.40
2018-05-09T19:18:37.783Z,19.77
2018-05-09T19:21:03.858Z,19.87
2018-05-09T19:23:29.937Z,20.50
2018-05-09T19:25:56.127Z,20.53
2018-05-09T19:28:22.173Z,18.77
2018-05-09T19:30:48.264Z,22.00
2018-05-09T19:33:14.342Z,20.13
2018-05-09T19:35:40.408Z,22.50
2018-05-09T19:38:06.535Z,23.30
2018-05-09T19:40:32.658Z,21.53
2018-05-09T19:42:58.671Z,20.67
2018-05-09T19:45:24.816Z,20.90
2018-05-09T19:47:50.911Z,20.77
2018-05-09T19:50:17.919Z,24.93
2018-05-09T19:52:44.643Z,22.23
2018-05-09T19:55:10.776Z,23.07
2018-05-09T19:57:37.277Z,25.03
2018-05-09T20:00:03.424Z,28.87
2018-05-09T20:02:29.510Z,26.27
2018-05-09T20:04:55.569Z,27.63
2018-05-09T20:07:21.636Z,25.47
2018-05-09T20:09:47.704Z,24.17
2018-05-09T20:12:13.780Z,21.37
2018-05-09T20:14:39.797Z,21.23
2018-05-09T20:17:06.165Z,22.23
2018-05-09T20:19:32.621Z,20.70
2018-05-09T20:21:58.929Z,18.70
2018-05-09T20:24:25.112Z,19.10
2018-05-09T20:26:51.144Z,20.50
2018-05-09T20:29:17.168Z,19.97
2018-05-09T20:31:56.957Z,19.20
2018-05-09T20:34:23.043Z,18.93
2018-05-09T20:36:49.074Z,19.93
2018-05-09T20:39:15.198Z,18.13
2018-05-09T20:41:41.400Z,19.83
2018-05-09T20:44:07.435Z,17.47
2018-05-09T20:46:33.502Z,17.63
2018-05-09T20:48:59.566Z,18.17
2018-05-09T20:51:37.764Z,20.43
2018-05-09T20:54:03.798Z,20.60
2018-05-09T20:56:29.853Z,22.10
2018-05-09T20:58:55.922Z,19.73
2018-05-09T21:01:34.714Z,21.50
2018-05-09T21:04:00.906Z,18.63
2018-05-09T21:06:26.978Z,22.70
2018-05-09T21:08:52.997Z,22.93
2018-05-09T21:11:19.055Z,24.87
2018-05-09T21:13:45.158Z,23.13
2018-05-09T21:16:11.176Z,19.20
2018-05-09T21:18:37.252Z,22.43
2018-05-09T21:21:03.273Z,24.63
2018-05-09T21:23:29.400Z,24.03
2018-05-09T21:25:55.449Z,21.87
2018-05-09T21:28:21.498Z,25.60
2018-05-09T21:30:47.539Z,25.87
2018-05-09T21:33:13.597Z,25.90
2018-05-09T21:35:39.597Z,25.93
2018-05-09T21:38:05.589Z,24.13
2018-05-09T21:40:31.704Z,24.37
2018-05-09T21:42:57.749Z,25.10
2018-05-09T21:45:23.749Z,32.80
2018-05-09T21:47:57.022Z,26.97
2018-05-09T21:50:23.049Z,24.40
2018-05-09T21:52:49.099Z,25.50
2018-05-09T21:55:15.181Z,26.23
2018-05-09T21:57:41.198Z,28.87
2018-05-09T22:00:07.234Z,27.40
2018-05-09T22:02:33.303Z,23.30
2018-05-09T22:04:59.393Z,26.20
2018-05-09T22:07:25.616Z,27.97
2018-05-09T22:09:51.626Z,29.37
2018-05-09T22:12:17.638Z,24.90
2018-05-09T22:14:44.795Z,28.63
2018-05-09T22:17:10.852Z,31.77
2018-05-09T22:19:37.689Z,25.17
2018-05-09T22:22:03.699Z,26.60
2018-05-09T22:24:29.748Z,22.40
2018-05-09T22:26:55.967Z,20.57
2018-05-09T22:29:22.029Z,21.03
2018-05-09T22:31:48.062Z,20.97
2018-05-09T22:34:14.124Z,20.70
2018-05-09T22:36:40.161Z,23.10
2018-05-09T22:39:06.389Z,23.73
2018-05-09T22:41:32.500Z,26.37
2018-05-09T22:43:58.612Z,26.07
2018-05-09T22:46:24.640Z,30.57
2018-05-09T22:48:51.292Z,29.37
2018-05-09T22:51:17.524Z,33.37
2018-05-09T22:53:43.556Z,30.10
2018-05-09T22:56:09.658Z,29.47
2018-05-09T22:58:35.723Z,25.30
2018-05-09T23:01:01.807Z,23.53
2018-05-09T23:03:27.834Z,21.83
2018-05-09T23:05:53.862Z,23.20
2018-05-09T23:08:19.897Z,22.07
2018-05-09T23:10:45.897Z,21.57
2018-05-09T23:13:11.899Z,24.43
2018-05-09T23:15:37.990Z,19.57
2018-05-09T23:18:03.993Z,20.83
2018-05-09T23:20:29.983Z,20.47
2018-05-09T23:22:55.992Z,21.83
2018-05-09T23:25:22.000Z,20.90
2018-05-09T23:27:48.032Z,21.43
2018-05-09T23:30:14.081Z,21.17
2018-05-09T23:32:40.102Z,23.13
2018-05-09T23:35:06.101Z,21.07
2018-05-09T23:37:32.117Z,22.87
2018-05-09T23:39:58.128Z,19.43
2018-05-09T23:42:24.160Z,22.83
2018-05-09T23:44:50.216Z,22.57
2018-05-09T23:47:16.819Z,22.17
2018-05-09T23:49:42.990Z,24.03
2018-05-09T23:52:09.087Z,25.10
2018-05-09T23:54:35.097Z,24.58
2018-05-09T23:57:01.409Z,30.77
2018-05-09T23:59:27.513Z,32.00
